sensor_id;sensor_type;location;lat;lon;timestamp;P1;durP1;ratioP1;P2;durP2;ratioP2
52786;SDS011;38661;53.152;5.846;2023-03-01T00:01:19;24.48;;;15.32;;
52786;SDS011;38661;53.152;5.846;2023-03-01T00:06:16;24.75;;;16.27;;
52786;SDS011;38661;53.152;5.846;2023-03-01T00:08:42;31.55;;;18.10;;
52786;SDS011;38661;53.152;5.846;2023-03-01T00:11:10;57.65;;;29.55;;
52786;SDS011;38661;53.152;5.846;2023-03-01T00:13:45;91.88;;;40.13;;
52786;SDS011;38661;53.152;5.846;2023-03-01T00:16:14;42.50;;;23.10;;
52786;SDS011;38661;53.152;5.846;2023-03-01T00:18:42;22.08;;;13.80;;
52786;SDS011;38661;53.152;5.846;2023-03-01T00:21:08;24.63;;;11.82;;
52786;SDS011;38661;53.152;5.846;2023-03-01T00:23:34;112.72;;;60.42;;
52786;SDS011;38661;53.152;5.846;2023-03-01T00:26:01;176.93;;;59.65;;
52786;SDS011;38661;53.152;5.846;2023-03-01T00:28:27;136.25;;;32.60;;
52786;SDS011;38661;53.152;5.846;2023-03-01T00:30:53;64.45;;;21.30;;
52786;SDS011;38661;53.152;5.846;2023-03-01T00:33:18;294.02;;;70.45;;
52786;SDS011;38661;53.152;5.846;2023-03-01T00:35:44;279.88;;;58.58;;
52786;SDS011;38661;53.152;5.846;2023-03-01T00:38:10;106.63;;;22.50;;
52786;SDS011;38661;53.152;5.846;2023-03-01T00:40:36;183.30;;;20.20;;
52786;SDS011;38661;53.152;5.846;2023-03-01T00:43:02;140.88;;;17.67;;
52786;SDS011;38661;53.152;5.846;2023-03-01T00:45:28;98.35;;;14.65;;
52786;SDS011;38661;53.152;5.846;2023-03-01T00:47:56;160.43;;;35.67;;
52786;SDS011;38661;53.152;5.846;2023-03-01T00:50:22;215.90;;;55.40;;
52786;SDS011;38661;53.152;5.846;2023-03-01T00:52:52;127.22;;;40.00;;
52786;SDS011;38661;53.152;5.846;2023-03-01T00:55:21;126.80;;;33.13;;
52786;SDS011;38661;53.152;5.846;2023-03-01T00:57:47;121.07;;;15.57;;
52786;SDS011;38661;53.152;5.846;2023-03-01T01:00:13;160.27;;;18.48;;
52786;SDS011;38661;53.152;5.846;2023-03-01T01:02:39;178.18;;;18.45;;
52786;SDS011;38661;53.152;5.846;2023-03-01T01:05:05;137.05;;;17.08;;
52786;SDS011;38661;53.152;5.846;2023-03-01T01:07:31;112.28;;;16.60;;
52786;SDS011;38661;53.152;5.846;2023-03-01T01:09:57;93.25;;;15.80;;
52786;SDS011;38661;53.152;5.846;2023-03-01T01:12:23;48.97;;;11.30;;
52786;SDS011;38661;53.152;5.846;2023-03-01T01:14:48;51.63;;;11.93;;
52786;SDS011;38661;53.152;5.846;2023-03-01T01:17:14;36.85;;;11.73;;
52786;SDS011;38661;53.152;5.846;2023-03-01T01:19:40;50.35;;;13.05;;
52786;SDS011;38661;53.152;5.846;2023-03-01T01:22:06;59.17;;;11.70;;
52786;SDS011;38661;53.152;5.846;2023-03-01T01:24:31;83.60;;;13.00;;
52786;SDS011;38661;53.152;5.846;2023-03-01T01:26:57;44.92;;;10.63;;
52786;SDS011;38661;53.152;5.846;2023-03-01T01:29:23;42.50;;;10.57;;
52786;SDS011;38661;53.152;5.846;2023-03-01T01:31:48;88.57;;;12.20;;
52786;SDS011;38661;53.152;5.846;2023-03-01T01:34:15;78.78;;;11.45;;
52786;SDS011;38661;53.152;5.846;2023-03-01T01:36:43;101.20;;;11.35;;
52786;SDS011;38661;53.152;5.846;2023-03-01T01:39:12;59.53;;;10.98;;
52786;SDS011;38661;53.152;5.846;2023-03-01T01:41:38;36.70;;;8.77;;
52786;SDS011;38661;53.152;5.846;2023-03-01T01:44:17;46.05;;;11.63;;
52786;SDS011;38661;53.152;5.846;2023-03-01T01:49:32;37.70;;;9.77;;
52786;SDS011;38661;53.152;5.846;2023-03-01T01:52:07;46.13;;;11.07;;
52786;SDS011;38661;53.152;5.846;2023-03-01T01:57:08;64.22;;;11.10;;
52786;SDS011;38661;53.152;5.846;2023-03-01T01:59:37;66.70;;;15.93;;
52786;SDS011;38661;53.152;5.846;2023-03-01T02:02:05;155.18;;;20.83;;
52786;SDS011;38661;53.152;5.846;2023-03-01T02:04:31;179.13;;;21.50;;
52786;SDS011;38661;53.152;5.846;2023-03-01T02:06:59;153.98;;;19.90;;
52786;SDS011;38661;53.152;5.846;2023-03-01T02:09:28;161.15;;;21.70;;
52786;SDS011;38661;53.152;5.846;2023-03-01T02:11:56;205.20;;;22.98;;
52786;SDS011;38661;53.152;5.846;2023-03-01T02:14:22;330.52;;;28.15;;
52786;SDS011;38661;53.152;5.846;2023-03-01T02:16:47;290.63;;;29.13;;
52786;SDS011;38661;53.152;5.846;2023-03-01T02:19:20;520.95;;;40.53;;
52786;SDS011;38661;53.152;5.846;2023-03-01T02:22:10;563.65;;;41.72;;
52786;SDS011;38661;53.152;5.846;2023-03-01T02:25:07;498.27;;;39.30;;
52786;SDS011;38661;53.152;5.846;2023-03-01T02:30:38;476.02;;;38.00;;
52786;SDS011;38661;53.152;5.846;2023-03-01T02:33:25;388.15;;;29.15;;
52786;SDS011;38661;53.152;5.846;2023-03-01T02:35:51;378.05;;;35.22;;
52786;SDS011;38661;53.152;5.846;2023-03-01T02:38:19;211.13;;;23.10;;
52786;SDS011;38661;53.152;5.846;2023-03-01T02:40:46;147.07;;;20.40;;
52786;SDS011;38661;53.152;5.846;2023-03-01T02:43:14;320.13;;;26.92;;
52786;SDS011;38661;53.152;5.846;2023-03-01T02:45:50;219.32;;;24.33;;
52786;SDS011;38661;53.152;5.846;2023-03-01T02:48:18;152.65;;;18.80;;
52786;SDS011;38661;53.152;5.846;2023-03-01T02:56:53;151.73;;;17.52;;
52786;SDS011;38661;53.152;5.846;2023-03-01T02:59:22;154.93;;;18.75;;
52786;SDS011;38661;53.152;5.846;2023-03-01T03:01:54;102.03;;;16.38;;
52786;SDS011;38661;53.152;5.846;2023-03-01T03:04:19;120.80;;;15.60;;
52786;SDS011;38661;53.152;5.846;2023-03-01T03:06:46;175.00;;;20.60;;
52786;SDS011;38661;53.152;5.846;2023-03-01T03:09:14;149.65;;;18.52;;
52786;SDS011;38661;53.152;5.846;2023-03-01T03:11:41;166.82;;;18.30;;
52786;SDS011;38661;53.152;5.846;2023-03-01T03:14:08;128.57;;;16.42;;
52786;SDS011;38661;53.152;5.846;2023-03-01T03:16:45;116.57;;;18.08;;
52786;SDS011;38661;53.152;5.846;2023-03-01T03:19:13;149.68;;;18.45;;
52786;SDS011;38661;53.152;5.846;2023-03-01T03:21:39;143.00;;;17.65;;
52786;SDS011;38661;53.152;5.846;2023-03-01T03:24:05;114.18;;;17.17;;
52786;SDS011;38661;53.152;5.846;2023-03-01T03:26:31;122.30;;;15.68;;
52786;SDS011;38661;53.152;5.846;2023-03-01T03:28:57;79.50;;;14.63;;
52786;SDS011;38661;53.152;5.846;2023-03-01T03:31:23;55.75;;;13.80;;
52786;SDS011;38661;53.152;5.846;2023-03-01T03:33:48;76.43;;;13.63;;
52786;SDS011;38661;53.152;5.846;2023-03-01T03:36:15;82.45;;;14.70;;
52786;SDS011;38661;53.152;5.846;2023-03-01T03:38:43;69.03;;;13.07;;
52786;SDS011;38661;53.152;5.846;2023-03-01T03:41:10;67.60;;;12.85;;
52786;SDS011;38661;53.152;5.846;2023-03-01T03:43:37;72.32;;;13.18;;
52786;SDS011;38661;53.152;5.846;2023-03-01T03:46:05;53.47;;;13.40;;
52786;SDS011;38661;53.152;5.846;2023-03-01T03:48:35;79.10;;;12.45;;
52786;SDS011;38661;53.152;5.846;2023-03-01T03:51:06;121.00;;;14.45;;
52786;SDS011;38661;53.152;5.846;2023-03-01T03:53:34;103.43;;;13.45;;
52786;SDS011;38661;53.152;5.846;2023-03-01T03:56:00;101.80;;;13.25;;
52786;SDS011;38661;53.152;5.846;2023-03-01T03:58:26;105.75;;;12.73;;
52786;SDS011;38661;53.152;5.846;2023-03-01T04:00:52;64.07;;;10.57;;
52786;SDS011;38661;53.152;5.846;2023-03-01T04:03:21;74.75;;;11.52;;
52786;SDS011;38661;53.152;5.846;2023-03-01T04:05:48;52.45;;;10.52;;
52786;SDS011;38661;53.152;5.846;2023-03-01T04:08:16;56.28;;;11.23;;
52786;SDS011;38661;53.152;5.846;2023-03-01T04:10:45;56.03;;;11.93;;
52786;SDS011;38661;53.152;5.846;2023-03-01T04:13:13;35.63;;;9.90;;
52786;SDS011;38661;53.152;5.846;2023-03-01T04:15:41;12.93;;;8.27;;
52786;SDS011;38661;53.152;5.846;2023-03-01T04:18:13;16.40;;;8.30;;
52786;SDS011;38661;53.152;5.846;2023-03-01T04:20:40;13.05;;;8.82;;
52786;SDS011;38661;53.152;5.846;2023-03-01T04:23:08;27.33;;;9.55;;
52786;SDS011;38661;53.152;5.846;2023-03-01T04:25:42;29.95;;;9.70;;
52786;SDS011;38661;53.152;5.846;2023-03-01T04:28:14;31.35;;;9.63;;
52786;SDS011;38661;53.152;5.846;2023-03-01T04:30:41;21.08;;;9.35;;
52786;SDS011;38661;53.152;5.846;2023-03-01T04:33:07;35.15;;;10.27;;
52786;SDS011;38661;53.152;5.846;2023-03-01T04:35:35;33.33;;;10.90;;
52786;SDS011;38661;53.152;5.846;2023-03-01T04:38:01;122.63;;;15.07;;
52786;SDS011;38661;53.152;5.846;2023-03-01T04:40:27;42.63;;;11.35;;
52786;SDS011;38661;53.152;5.846;2023-03-01T04:42:53;62.45;;;11.77;;
52786;SDS011;38661;53.152;5.846;2023-03-01T04:45:19;54.78;;;12.30;;
52786;SDS011;38661;53.152;5.846;2023-03-01T04:47:45;62.95;;;12.73;;
52786;SDS011;38661;53.152;5.846;2023-03-01T04:50:12;61.08;;;12.13;;
52786;SDS011;38661;53.152;5.846;2023-03-01T04:52:40;63.65;;;12.25;;
52786;SDS011;38661;53.152;5.846;2023-03-01T04:55:05;87.47;;;12.55;;
52786;SDS011;38661;53.152;5.846;2023-03-01T04:57:32;139.32;;;14.40;;
52786;SDS011;38661;53.152;5.846;2023-03-01T04:59:57;189.15;;;16.65;;
52786;SDS011;38661;53.152;5.846;2023-03-01T05:02:23;76.72;;;11.60;;
52786;SDS011;38661;53.152;5.846;2023-03-01T05:04:49;112.93;;;13.05;;
52786;SDS011;38661;53.152;5.846;2023-03-01T05:07:15;62.67;;;11.13;;
52786;SDS011;38661;53.152;5.846;2023-03-01T05:09:47;87.90;;;11.02;;
52786;SDS011;38661;53.152;5.846;2023-03-01T05:12:13;48.88;;;10.43;;
52786;SDS011;38661;53.152;5.846;2023-03-01T05:14:40;95.38;;;12.10;;
52786;SDS011;38661;53.152;5.846;2023-03-01T05:17:06;50.78;;;10.70;;
52786;SDS011;38661;53.152;5.846;2023-03-01T05:19:33;76.28;;;12.32;;
52786;SDS011;38661;53.152;5.846;2023-03-01T05:21:58;22.45;;;9.60;;
52786;SDS011;38661;53.152;5.846;2023-03-01T05:24:29;42.05;;;10.40;;
52786;SDS011;38661;53.152;5.846;2023-03-01T05:26:56;11.23;;;7.68;;
52786;SDS011;38661;53.152;5.846;2023-03-01T05:29:22;9.73;;;7.80;;
52786;SDS011;38661;53.152;5.846;2023-03-01T05:31:52;13.27;;;7.57;;
52786;SDS011;38661;53.152;5.846;2023-03-01T05:34:27;10.80;;;7.88;;
52786;SDS011;38661;53.152;5.846;2023-03-01T05:36:54;13.55;;;8.18;;
52786;SDS011;38661;53.152;5.846;2023-03-01T05:39:21;8.10;;;6.95;;
52786;SDS011;38661;53.152;5.846;2023-03-01T05:41:51;8.57;;;7.05;;
52786;SDS011;38661;53.152;5.846;2023-03-01T05:44:18;8.07;;;6.93;;
52786;SDS011;38661;53.152;5.846;2023-03-01T05:46:44;8.85;;;7.35;;
52786;SDS011;38661;53.152;5.846;2023-03-01T05:49:10;7.28;;;6.38;;
52786;SDS011;38661;53.152;5.846;2023-03-01T05:51:38;8.70;;;7.07;;
52786;SDS011;38661;53.152;5.846;2023-03-01T05:54:04;6.88;;;6.18;;
52786;SDS011;38661;53.152;5.846;2023-03-01T05:56:33;7.22;;;6.53;;
52786;SDS011;38661;53.152;5.846;2023-03-01T05:59:00;8.00;;;6.97;;
52786;SDS011;38661;53.152;5.846;2023-03-01T06:01:26;9.18;;;7.85;;
52786;SDS011;38661;53.152;5.846;2023-03-01T06:03:52;14.68;;;13.18;;
52786;SDS011;38661;53.152;5.846;2023-03-01T06:06:18;15.88;;;13.48;;
52786;SDS011;38661;53.152;5.846;2023-03-01T06:08:44;14.48;;;12.88;;
52786;SDS011;38661;53.152;5.846;2023-03-01T06:11:09;15.93;;;13.90;;
52786;SDS011;38661;53.152;5.846;2023-03-01T06:13:35;14.13;;;12.45;;
52786;SDS011;38661;53.152;5.846;2023-03-01T06:16:03;13.90;;;11.95;;
52786;SDS011;38661;53.152;5.846;2023-03-01T06:18:31;14.70;;;13.13;;
52786;SDS011;38661;53.152;5.846;2023-03-01T06:20:56;12.20;;;10.90;;
52786;SDS011;38661;53.152;5.846;2023-03-01T06:23:23;13.27;;;11.88;;
52786;SDS011;38661;53.152;5.846;2023-03-01T06:25:49;15.10;;;13.50;;
52786;SDS011;38661;53.152;5.846;2023-03-01T06:28:15;14.40;;;12.90;;
52786;SDS011;38661;53.152;5.846;2023-03-01T06:30:41;14.18;;;11.80;;
52786;SDS011;38661;53.152;5.846;2023-03-01T06:33:07;14.35;;;11.88;;
52786;SDS011;38661;53.152;5.846;2023-03-01T06:35:33;11.73;;;10.52;;
52786;SDS011;38661;53.152;5.846;2023-03-01T06:38:00;16.35;;;14.32;;
52786;SDS011;38661;53.152;5.846;2023-03-01T06:40:26;15.05;;;13.20;;
52786;SDS011;38661;53.152;5.846;2023-03-01T06:42:52;16.58;;;14.90;;
52786;SDS011;38661;53.152;5.846;2023-03-01T06:45:19;14.80;;;11.60;;
52786;SDS011;38661;53.152;5.846;2023-03-01T06:47:45;9.65;;;8.65;;
52786;SDS011;38661;53.152;5.846;2023-03-01T06:50:11;7.03;;;6.30;;
52786;SDS011;38661;53.152;5.846;2023-03-01T06:52:38;7.43;;;6.63;;
52786;SDS011;38661;53.152;5.846;2023-03-01T06:55:04;7.63;;;6.82;;
52786;SDS011;38661;53.152;5.846;2023-03-01T06:57:30;7.18;;;6.47;;
52786;SDS011;38661;53.152;5.846;2023-03-01T06:59:56;8.20;;;6.57;;
52786;SDS011;38661;53.152;5.846;2023-03-01T07:02:22;7.50;;;6.75;;
52786;SDS011;38661;53.152;5.846;2023-03-01T07:04:51;7.45;;;6.68;;
52786;SDS011;38661;53.152;5.846;2023-03-01T07:07:17;9.73;;;8.43;;
52786;SDS011;38661;53.152;5.846;2023-03-01T07:09:44;9.23;;;7.93;;
52786;SDS011;38661;53.152;5.846;2023-03-01T07:12:10;14.57;;;10.13;;
52786;SDS011;38661;53.152;5.846;2023-03-01T07:14:35;21.98;;;10.55;;
52786;SDS011;38661;53.152;5.846;2023-03-01T07:17:01;17.17;;;8.88;;
52786;SDS011;38661;53.152;5.846;2023-03-01T07:19:27;93.43;;;13.35;;
52786;SDS011;38661;53.152;5.846;2023-03-01T07:21:53;210.23;;;19.23;;
52786;SDS011;38661;53.152;5.846;2023-03-01T07:24:20;316.50;;;22.33;;
52786;SDS011;38661;53.152;5.846;2023-03-01T07:26:49;210.52;;;20.30;;
52786;SDS011;38661;53.152;5.846;2023-03-01T07:29:16;151.85;;;15.93;;
52786;SDS011;38661;53.152;5.846;2023-03-01T07:31:41;154.85;;;16.02;;
52786;SDS011;38661;53.152;5.846;2023-03-01T07:34:07;47.75;;;12.07;;
52786;SDS011;38661;53.152;5.846;2023-03-01T07:36:33;40.22;;;11.57;;
52786;SDS011;38661;53.152;5.846;2023-03-01T07:38:58;119.13;;;15.27;;
52786;SDS011;38661;53.152;5.846;2023-03-01T07:41:27;85.00;;;13.23;;
52786;SDS011;38661;53.152;5.846;2023-03-01T07:43:53;59.88;;;11.85;;
52786;SDS011;38661;53.152;5.846;2023-03-01T07:46:18;59.45;;;13.45;;
52786;SDS011;38661;53.152;5.846;2023-03-01T07:48:44;29.83;;;14.00;;
52786;SDS011;38661;53.152;5.846;2023-03-01T07:51:10;14.40;;;10.65;;
52786;SDS011;38661;53.152;5.846;2023-03-01T07:53:36;16.58;;;13.90;;
52786;SDS011;38661;53.152;5.846;2023-03-01T07:56:09;15.15;;;11.50;;
52786;SDS011;38661;53.152;5.846;2023-03-01T07:58:37;13.02;;;11.70;;
52786;SDS011;38661;53.152;5.846;2023-03-01T08:01:05;20.52;;;16.27;;
52786;SDS011;38661;53.152;5.846;2023-03-01T08:03:33;11.48;;;9.82;;
52786;SDS011;38661;53.152;5.846;2023-03-01T08:06:00;16.55;;;13.32;;
52786;SDS011;38661;53.152;5.846;2023-03-01T08:08:26;12.05;;;10.35;;
52786;SDS011;38661;53.152;5.846;2023-03-01T08:10:52;27.83;;;18.63;;
52786;SDS011;38661;53.152;5.846;2023-03-01T08:13:21;13.75;;;12.43;;
52786;SDS011;38661;53.152;5.846;2023-03-01T08:15:50;22.42;;;20.33;;
52786;SDS011;38661;53.152;5.846;2023-03-01T08:18:17;11.52;;;10.32;;
52786;SDS011;38661;53.152;5.846;2023-03-01T08:20:43;11.90;;;9.70;;
52786;SDS011;38661;53.152;5.846;2023-03-01T08:23:09;14.80;;;13.27;;
52786;SDS011;38661;53.152;5.846;2023-03-01T08:25:35;15.20;;;12.43;;
52786;SDS011;38661;53.152;5.846;2023-03-01T08:28:01;17.77;;;14.52;;
52786;SDS011;38661;53.152;5.846;2023-03-01T08:30:27;44.28;;;39.63;;
52786;SDS011;38661;53.152;5.846;2023-03-01T08:32:53;24.48;;;21.98;;
52786;SDS011;38661;53.152;5.846;2023-03-01T08:35:19;26.45;;;23.42;;
52786;SDS011;38661;53.152;5.846;2023-03-01T08:37:46;28.75;;;25.55;;
52786;SDS011;38661;53.152;5.846;2023-03-01T08:40:12;35.38;;;31.65;;
52786;SDS011;38661;53.152;5.846;2023-03-01T08:42:39;28.20;;;24.35;;
52786;SDS011;38661;53.152;5.846;2023-03-01T08:45:08;30.85;;;23.52;;
52786;SDS011;38661;53.152;5.846;2023-03-01T08:47:34;29.92;;;25.60;;
52786;SDS011;38661;53.152;5.846;2023-03-01T08:50:00;27.88;;;21.77;;
52786;SDS011;38661;53.152;5.846;2023-03-01T08:52:26;24.35;;;19.80;;
52786;SDS011;38661;53.152;5.846;2023-03-01T08:54:52;20.52;;;16.73;;
52786;SDS011;38661;53.152;5.846;2023-03-01T08:57:18;18.73;;;16.40;;
52786;SDS011;38661;53.152;5.846;2023-03-01T08:59:44;17.83;;;16.00;;
52786;SDS011;38661;53.152;5.846;2023-03-01T09:02:11;15.07;;;12.93;;
52786;SDS011;38661;53.152;5.846;2023-03-01T09:04:40;19.30;;;14.90;;
52786;SDS011;38661;53.152;5.846;2023-03-01T09:07:06;18.27;;;14.80;;
52786;SDS011;38661;53.152;5.846;2023-03-01T09:09:32;19.65;;;15.63;;
52786;SDS011;38661;53.152;5.846;2023-03-01T09:11:57;20.05;;;17.38;;
52786;SDS011;38661;53.152;5.846;2023-03-01T09:14:23;27.65;;;23.63;;
52786;SDS011;38661;53.152;5.846;2023-03-01T09:16:49;42.88;;;30.30;;
52786;SDS011;38661;53.152;5.846;2023-03-01T09:19:15;78.75;;;45.85;;
52786;SDS011;38661;53.152;5.846;2023-03-01T09:21:41;89.03;;;51.30;;
52786;SDS011;38661;53.152;5.846;2023-03-01T09:24:16;66.18;;;37.90;;
52786;SDS011;38661;53.152;5.846;2023-03-01T09:26:44;61.88;;;36.70;;
52786;SDS011;38661;53.152;5.846;2023-03-01T09:29:13;47.80;;;29.75;;
52786;SDS011;38661;53.152;5.846;2023-03-01T09:31:40;37.40;;;25.05;;
52786;SDS011;38661;53.152;5.846;2023-03-01T09:34:06;23.98;;;18.52;;
52786;SDS011;38661;53.152;5.846;2023-03-01T09:36:33;22.27;;;17.27;;
52786;SDS011;38661;53.152;5.846;2023-03-01T09:38:59;21.50;;;17.45;;
52786;SDS011;38661;53.152;5.846;2023-03-01T09:41:30;19.80;;;15.75;;
52786;SDS011;38661;53.152;5.846;2023-03-01T09:46:56;18.45;;;14.48;;
52786;SDS011;38661;53.152;5.846;2023-03-01T09:49:24;17.88;;;14.77;;
52786;SDS011;38661;53.152;5.846;2023-03-01T09:54:21;17.38;;;13.82;;
52786;SDS011;38661;53.152;5.846;2023-03-01T10:02:14;13.05;;;11.02;;
52786;SDS011;38661;53.152;5.846;2023-03-01T10:04:47;18.52;;;12.77;;
52786;SDS011;38661;53.152;5.846;2023-03-01T10:09:53;17.75;;;13.15;;
52786;SDS011;38661;53.152;5.846;2023-03-01T10:12:20;16.52;;;11.93;;
52786;SDS011;38661;53.152;5.846;2023-03-01T10:17:34;14.98;;;12.30;;
52786;SDS011;38661;53.152;5.846;2023-03-01T10:20:23;15.17;;;11.43;;
52786;SDS011;38661;53.152;5.846;2023-03-01T10:22:51;17.60;;;12.55;;
52786;SDS011;38661;53.152;5.846;2023-03-01T10:25:25;16.33;;;12.20;;
52786;SDS011;38661;53.152;5.846;2023-03-01T10:28:10;15.70;;;13.05;;
52786;SDS011;38661;53.152;5.846;2023-03-01T10:30:53;17.25;;;13.25;;
52786;SDS011;38661;53.152;5.846;2023-03-01T10:33:23;16.50;;;13.30;;
52786;SDS011;38661;53.152;5.846;2023-03-01T10:35:52;15.90;;;12.48;;
52786;SDS011;38661;53.152;5.846;2023-03-01T10:38:18;16.63;;;11.75;;
52786;SDS011;38661;53.152;5.846;2023-03-01T10:43:24;16.33;;;12.63;;
52786;SDS011;38661;53.152;5.846;2023-03-01T10:45:55;17.67;;;12.20;;
52786;SDS011;38661;53.152;5.846;2023-03-01T10:48:24;18.70;;;14.38;;
52786;SDS011;38661;53.152;5.846;2023-03-01T10:53:27;17.73;;;14.68;;
52786;SDS011;38661;53.152;5.846;2023-03-01T10:56:10;18.33;;;13.73;;
52786;SDS011;38661;53.152;5.846;2023-03-01T10:58:59;17.05;;;13.57;;
52786;SDS011;38661;53.152;5.846;2023-03-01T11:01:27;20.02;;;14.70;;
52786;SDS011;38661;53.152;5.846;2023-03-01T11:04:07;16.45;;;13.63;;
52786;SDS011;38661;53.152;5.846;2023-03-01T11:06:38;19.73;;;14.85;;
52786;SDS011;38661;53.152;5.846;2023-03-01T11:09:21;18.35;;;14.77;;
52786;SDS011;38661;53.152;5.846;2023-03-01T11:11:56;20.48;;;15.68;;
52786;SDS011;38661;53.152;5.846;2023-03-01T11:14:27;18.95;;;14.73;;
52786;SDS011;38661;53.152;5.846;2023-03-01T11:17:13;17.65;;;13.65;;
52786;SDS011;38661;53.152;5.846;2023-03-01T11:19:43;18.95;;;15.73;;
52786;SDS011;38661;53.152;5.846;2023-03-01T11:22:31;16.98;;;14.43;;
52786;SDS011;38661;53.152;5.846;2023-03-01T11:24:59;18.40;;;15.35;;
52786;SDS011;38661;53.152;5.846;2023-03-01T11:27:28;18.25;;;15.63;;
52786;SDS011;38661;53.152;5.846;2023-03-01T11:32:45;15.50;;;13.32;;
52786;SDS011;38661;53.152;5.846;2023-03-01T11:35:23;17.20;;;13.70;;
52786;SDS011;38661;53.152;5.846;2023-03-01T11:43:22;16.40;;;13.50;;
52786;SDS011;38661;53.152;5.846;2023-03-01T11:56:46;16.83;;;14.40;;
52786;SDS011;38661;53.152;5.846;2023-03-01T12:07:12;17.52;;;13.90;;
52786;SDS011;38661;53.152;5.846;2023-03-01T12:09:57;19.90;;;14.70;;
52786;SDS011;38661;53.152;5.846;2023-03-01T12:15:32;19.50;;;15.10;;
52786;SDS011;38661;53.152;5.846;2023-03-01T12:21:17;16.33;;;14.52;;
52786;SDS011;38661;53.152;5.846;2023-03-01T12:26:53;15.75;;;13.82;;
52786;SDS011;38661;53.152;5.846;2023-03-01T12:29:44;17.55;;;13.60;;
52786;SDS011;38661;53.152;5.846;2023-03-01T12:45:50;16.70;;;13.88;;
52786;SDS011;38661;53.152;5.846;2023-03-01T12:51:02;14.93;;;11.77;;
52786;SDS011;38661;53.152;5.846;2023-03-01T12:53:50;14.73;;;11.27;;
52786;SDS011;38661;53.152;5.846;2023-03-01T12:56:28;14.27;;;11.23;;
52786;SDS011;38661;53.152;5.846;2023-03-01T13:01:57;14.60;;;11.70;;
52786;SDS011;38661;53.152;5.846;2023-03-01T13:07:37;18.08;;;12.13;;
52786;SDS011;38661;53.152;5.846;2023-03-01T13:10:29;15.43;;;13.00;;
52786;SDS011;38661;53.152;5.846;2023-03-01T13:13:24;15.00;;;13.40;;
52786;SDS011;38661;53.152;5.846;2023-03-01T13:15:52;15.85;;;12.70;;
52786;SDS011;38661;53.152;5.846;2023-03-01T13:20:48;15.75;;;13.13;;
52786;SDS011;38661;53.152;5.846;2023-03-01T13:31:10;16.15;;;11.98;;
52786;SDS011;38661;53.152;5.846;2023-03-01T13:33:46;13.63;;;11.98;;
52786;SDS011;38661;53.152;5.846;2023-03-01T13:47:14;16.17;;;13.38;;
52786;SDS011;38661;53.152;5.846;2023-03-01T13:49:51;13.85;;;12.32;;
52786;SDS011;38661;53.152;5.846;2023-03-01T13:52:24;15.75;;;12.75;;
52786;SDS011;38661;53.152;5.846;2023-03-01T13:57:40;16.77;;;12.77;;
52786;SDS011;38661;53.152;5.846;2023-03-01T14:06:06;16.35;;;12.90;;
52786;SDS011;38661;53.152;5.846;2023-03-01T14:08:34;16.58;;;13.05;;
52786;SDS011;38661;53.152;5.846;2023-03-01T14:11:20;20.15;;;14.23;;
52786;SDS011;38661;53.152;5.846;2023-03-01T14:17:02;14.70;;;12.35;;
52786;SDS011;38661;53.152;5.846;2023-03-01T14:19:54;15.95;;;12.65;;
52786;SDS011;38661;53.152;5.846;2023-03-01T14:22:23;14.63;;;12.57;;
52786;SDS011;38661;53.152;5.846;2023-03-01T14:24:57;13.88;;;12.25;;
52786;SDS011;38661;53.152;5.846;2023-03-01T14:27:44;16.05;;;12.80;;
52786;SDS011;38661;53.152;5.846;2023-03-01T14:30:22;17.50;;;12.70;;
52786;SDS011;38661;53.152;5.846;2023-03-01T14:32:51;15.20;;;12.27;;
52786;SDS011;38661;53.152;5.846;2023-03-01T14:35:27;15.15;;;12.00;;
52786;SDS011;38661;53.152;5.846;2023-03-01T14:37:57;13.50;;;11.63;;
52786;SDS011;38661;53.152;5.846;2023-03-01T14:40:25;13.57;;;11.80;;
52786;SDS011;38661;53.152;5.846;2023-03-01T14:42:53;15.23;;;12.32;;
52786;SDS011;38661;53.152;5.846;2023-03-01T14:45:21;12.57;;;11.15;;
52786;SDS011;38661;53.152;5.846;2023-03-01T14:47:51;15.70;;;11.70;;
52786;SDS011;38661;53.152;5.846;2023-03-01T14:50:28;13.32;;;11.43;;
52786;SDS011;38661;53.152;5.846;2023-03-01T14:52:58;12.88;;;11.48;;
52786;SDS011;38661;53.152;5.846;2023-03-01T14:57:52;14.68;;;11.65;;
52786;SDS011;38661;53.152;5.846;2023-03-01T15:02:47;15.23;;;12.50;;
52786;SDS011;38661;53.152;5.846;2023-03-01T15:05:14;13.25;;;11.85;;
52786;SDS011;38661;53.152;5.846;2023-03-01T15:07:43;12.40;;;11.10;;
52786;SDS011;38661;53.152;5.846;2023-03-01T15:10:20;14.38;;;11.70;;
52786;SDS011;38661;53.152;5.846;2023-03-01T15:12:50;14.48;;;11.45;;
52786;SDS011;38661;53.152;5.846;2023-03-01T15:18:02;12.85;;;11.30;;
52786;SDS011;38661;53.152;5.846;2023-03-01T15:20:30;12.95;;;10.20;;
52786;SDS011;38661;53.152;5.846;2023-03-01T15:23:00;11.23;;;9.65;;
52786;SDS011;38661;53.152;5.846;2023-03-01T15:25:28;11.50;;;10.05;;
52786;SDS011;38661;53.152;5.846;2023-03-01T15:27:55;12.90;;;10.18;;
52786;SDS011;38661;53.152;5.846;2023-03-01T15:30:27;12.60;;;10.70;;
52786;SDS011;38661;53.152;5.846;2023-03-01T15:35:46;12.00;;;9.90;;
52786;SDS011;38661;53.152;5.846;2023-03-01T15:41:03;13.65;;;10.73;;
52786;SDS011;38661;53.152;5.846;2023-03-01T15:43:46;14.05;;;10.02;;
52786;SDS011;38661;53.152;5.846;2023-03-01T15:48:47;13.55;;;11.15;;
52786;SDS011;38661;53.152;5.846;2023-03-01T15:51:17;12.05;;;10.18;;
52786;SDS011;38661;53.152;5.846;2023-03-01T15:53:49;12.88;;;11.43;;
52786;SDS011;38661;53.152;5.846;2023-03-01T15:56:18;13.15;;;10.98;;
52786;SDS011;38661;53.152;5.846;2023-03-01T15:58:44;14.15;;;11.40;;
52786;SDS011;38661;53.152;5.846;2023-03-01T16:01:14;13.25;;;11.25;;
52786;SDS011;38661;53.152;5.846;2023-03-01T16:03:44;13.38;;;11.10;;
52786;SDS011;38661;53.152;5.846;2023-03-01T16:06:10;12.63;;;11.02;;
52786;SDS011;38661;53.152;5.846;2023-03-01T16:08:37;15.80;;;11.52;;
52786;SDS011;38661;53.152;5.846;2023-03-01T16:11:09;14.32;;;10.43;;
52786;SDS011;38661;53.152;5.846;2023-03-01T16:13:40;16.30;;;11.88;;
52786;SDS011;38661;53.152;5.846;2023-03-01T16:16:07;12.05;;;10.18;;
52786;SDS011;38661;53.152;5.846;2023-03-01T16:18:37;14.07;;;11.48;;
52786;SDS011;38661;53.152;5.846;2023-03-01T16:21:03;12.85;;;11.07;;
52786;SDS011;38661;53.152;5.846;2023-03-01T16:23:30;12.82;;;10.45;;
52786;SDS011;38661;53.152;5.846;2023-03-01T16:25:58;12.65;;;10.93;;
52786;SDS011;38661;53.152;5.846;2023-03-01T16:28:24;14.75;;;11.02;;
52786;SDS011;38661;53.152;5.846;2023-03-01T16:30:51;13.25;;;11.02;;
52786;SDS011;38661;53.152;5.846;2023-03-01T16:33:17;13.43;;;10.98;;
52786;SDS011;38661;53.152;5.846;2023-03-01T16:35:43;15.25;;;10.27;;
52786;SDS011;38661;53.152;5.846;2023-03-01T16:38:09;14.05;;;10.25;;
52786;SDS011;38661;53.152;5.846;2023-03-01T16:40:35;13.50;;;9.57;;
52786;SDS011;38661;53.152;5.846;2023-03-01T16:43:01;13.50;;;10.35;;
52786;SDS011;38661;53.152;5.846;2023-03-01T16:45:27;12.32;;;9.60;;
52786;SDS011;38661;53.152;5.846;2023-03-01T16:47:59;13.88;;;10.48;;
52786;SDS011;38661;53.152;5.846;2023-03-01T16:50:24;12.73;;;9.63;;
52786;SDS011;38661;53.152;5.846;2023-03-01T16:52:50;10.90;;;9.80;;
52786;SDS011;38661;53.152;5.846;2023-03-01T16:55:16;15.02;;;11.75;;
52786;SDS011;38661;53.152;5.846;2023-03-01T16:57:42;16.55;;;13.35;;